sensor_id;sensor_type;location;lat;lon;timestamp;temperature;humidity
11122;DHT22;5615;49.304;10.576;2023-04-12T00:00:39;4.30;99.90
11122;DHT22;5615;49.304;10.576;2023-04-12T00:03:08;4.30;99.90
11122;DHT22;5615;49.304;10.576;2023-04-12T00:05:35;4.40;99.90
11122;DHT22;5615;49.304;10.576;2023-04-12T00:08:02;4.40;99.90
11122;DHT22;5615;49.304;10.576;2023-04-12T00:10:29;4.40;99.90
11122;DHT22;5615;49.304;10.576;2023-04-12T00:12:56;4.40;99.90
11122;DHT22;5615;49.304;10.576;2023-04-12T00:15:22;4.40;99.90
11122;DHT22;5615;49.304;10.576;2023-04-12T00:17:49;4.40;99.90
11122;DHT22;5615;49.304;10.576;2023-04-12T00:20:17;4.40;99.90
11122;DHT22;5615;49.304;10.576;2023-04-12T00:22:44;4.40;99.90
11122;DHT22;5615;49.304;10.576;2023-04-12T00:25:10;4.30;99.90
11122;DHT22;5615;49.304;10.576;2023-04-12T00:27:37;4.30;99.90
11122;DHT22;5615;49.304;10.576;2023-04-12T00:30:06;4.30;99.90
11122;DHT22;5615;49.304;10.576;2023-04-12T00:32:32;4.30;99.90
11122;DHT22;5615;49.304;10.576;2023-04-12T00:34:59;4.30;99.90
11122;DHT22;5615;49.304;10.576;2023-04-12T00:37:27;4.30;99.90
11122;DHT22;5615;49.304;10.576;2023-04-12T00:39:54;4.30;99.90
11122;DHT22;5615;49.304;10.576;2023-04-12T00:42:20;4.30;99.90
11122;DHT22;5615;49.304;10.576;2023-04-12T00:44:47;4.30;99.90
11122;DHT22;5615;49.304;10.576;2023-04-12T00:47:13;4.30;99.90
11122;DHT22;5615;49.304;10.576;2023-04-12T00:49:40;4.40;99.90
11122;DHT22;5615;49.304;10.576;2023-04-12T00:52:07;4.40;99.90
11122;DHT22;5615;49.304;10.576;2023-04-12T00:54:36;4.40;99.90
11122;DHT22;5615;49.304;10.576;2023-04-12T00:57:04;4.40;99.90
11122;DHT22;5615;49.304;10.576;2023-04-12T00:59:31;4.40;99.90
11122;DHT22;5615;49.304;10.576;2023-04-12T01:01:58;4.50;99.90
11122;DHT22;5615;49.304;10.576;2023-04-12T01:04:25;4.50;99.90
11122;DHT22;5615;49.304;10.576;2023-04-12T01:07:04;4.60;99.90
11122;DHT22;5615;49.304;10.576;2023-04-12T01:09:40;4.60;99.90
11122;DHT22;5615;49.304;10.576;2023-04-12T01:12:13;4.60;99.90
11122;DHT22;5615;49.304;10.576;2023-04-12T01:14:45;4.70;99.90
11122;DHT22;5615;49.304;10.576;2023-04-12T01:17:19;4.70;99.90
11122;DHT22;5615;49.304;10.576;2023-04-12T01:19:55;4.80;99.90
11122;DHT22;5615;49.304;10.576;2023-04-12T01:22:36;4.80;99.90
11122;DHT22;5615;49.304;10.576;2023-04-12T01:25:20;4.80;99.90
11122;DHT22;5615;49.304;10.576;2023-04-12T01:27:54;4.90;99.90
11122;DHT22;5615;49.304;10.576;2023-04-12T01:30:23;4.90;99.90
11122;DHT22;5615;49.304;10.576;2023-04-12T01:32:52;4.90;99.90
11122;DHT22;5615;49.304;10.576;2023-04-12T01:35:21;5.00;99.90
11122;DHT22;5615;49.304;10.576;2023-04-12T01:37:49;5.00;99.90
11122;DHT22;5615;49.304;10.576;2023-04-12T01:40:17;5.00;99.90
11122;DHT22;5615;49.304;10.576;2023-04-12T01:42:44;5.00;99.90
11122;DHT22;5615;49.304;10.576;2023-04-12T01:45:12;5.10;99.90
11122;DHT22;5615;49.304;10.576;2023-04-12T01:47:38;5.10;99.90
11122;DHT22;5615;49.304;10.576;2023-04-12T01:50:13;5.10;99.90
11122;DHT22;5615;49.304;10.576;2023-04-12T01:52:47;5.10;99.90
11122;DHT22;5615;49.304;10.576;2023-04-12T01:55:15;5.10;99.90
11122;DHT22;5615;49.304;10.576;2023-04-12T01:57:44;5.20;99.90
11122;DHT22;5615;49.304;10.576;2023-04-12T02:00:15;5.20;99.90
11122;DHT22;5615;49.304;10.576;2023-04-12T02:02:42;5.30;99.90
11122;DHT22;5615;49.304;10.576;2023-04-12T02:05:09;5.40;99.90
11122;DHT22;5615;49.304;10.576;2023-04-12T02:07:36;5.50;99.90
11122;DHT22;5615;49.304;10.576;2023-04-12T02:10:03;5.60;99.90
11122;DHT22;5615;49.304;10.576;2023-04-12T02:12:30;5.60;99.90
11122;DHT22;5615;49.304;10.576;2023-04-12T02:14:57;5.70;99.90
11122;DHT22;5615;49.304;10.576;2023-04-12T02:17:26;5.70;99.90
11122;DHT22;5615;49.304;10.576;2023-04-12T02:19:54;5.70;99.90
11122;DHT22;5615;49.304;10.576;2023-04-12T02:22:22;5.80;99.90
11122;DHT22;5615;49.304;10.576;2023-04-12T02:24:48;5.80;99.90
11122;DHT22;5615;49.304;10.576;2023-04-12T02:27:15;6.00;99.90
11122;DHT22;5615;49.304;10.576;2023-04-12T02:29:43;6.20;99.90
11122;DHT22;5615;49.304;10.576;2023-04-12T02:32:10;6.20;99.90
11122;DHT22;5615;49.304;10.576;2023-04-12T02:34:38;6.30;99.90
11122;DHT22;5615;49.304;10.576;2023-04-12T02:37:05;6.30;99.90
11122;DHT22;5615;49.304;10.576;2023-04-12T02:39:33;6.30;99.90
11122;DHT22;5615;49.304;10.576;2023-04-12T02:42:00;6.30;99.90
11122;DHT22;5615;49.304;10.576;2023-04-12T02:44:28;6.30;99.90
11122;DHT22;5615;49.304;10.576;2023-04-12T02:46:54;6.40;99.90
11122;DHT22;5615;49.304;10.576;2023-04-12T02:49:21;6.30;99.90
11122;DHT22;5615;49.304;10.576;2023-04-12T02:51:49;6.30;99.90
11122;DHT22;5615;49.304;10.576;2023-04-12T02:54:16;6.30;99.90
11122;DHT22;5615;49.304;10.576;2023-04-12T02:56:42;6.30;99.90
11122;DHT22;5615;49.304;10.576;2023-04-12T02:59:09;6.30;99.90
11122;DHT22;5615;49.304;10.576;2023-04-12T03:01:35;6.30;99.90
11122;DHT22;5615;49.304;10.576;2023-04-12T03:04:03;6.30;99.90
11122;DHT22;5615;49.304;10.576;2023-04-12T03:06:30;6.30;99.90
11122;DHT22;5615;49.304;10.576;2023-04-12T03:08:58;6.30;99.90
11122;DHT22;5615;49.304;10.576;2023-04-12T03:11:25;6.30;99.90
11122;DHT22;5615;49.304;10.576;2023-04-12T03:13:52;6.30;99.90
11122;DHT22;5615;49.304;10.576;2023-04-12T03:16:21;6.20;99.90
11122;DHT22;5615;49.304;10.576;2023-04-12T03:18:48;6.20;99.90
11122;DHT22;5615;49.304;10.576;2023-04-12T03:21:15;6.30;99.90
11122;DHT22;5615;49.304;10.576;2023-04-12T03:23:42;6.30;99.90
11122;DHT22;5615;49.304;10.576;2023-04-12T03:26:10;6.20;99.90
11122;DHT22;5615;49.304;10.576;2023-04-12T03:28:36;6.20;99.90
11122;DHT22;5615;49.304;10.576;2023-04-12T03:31:03;6.20;99.90
11122;DHT22;5615;49.304;10.576;2023-04-12T03:33:30;6.10;99.90
11122;DHT22;5615;49.304;10.576;2023-04-12T03:35:56;6.10;99.90
11122;DHT22;5615;49.304;10.576;2023-04-12T03:38:23;6.10;99.90
11122;DHT22;5615;49.304;10.576;2023-04-12T03:40:50;6.10;99.90
11122;DHT22;5615;49.304;10.576;2023-04-12T03:43:18;6.10;99.90
11122;DHT22;5615;49.304;10.576;2023-04-12T03:45:44;6.10;99.90
11122;DHT22;5615;49.304;10.576;2023-04-12T03:48:11;6.10;99.90
11122;DHT22;5615;49.304;10.576;2023-04-12T03:50:39;6.00;99.90
11122;DHT22;5615;49.304;10.576;2023-04-12T03:53:08;6.00;99.90
11122;DHT22;5615;49.304;10.576;2023-04-12T03:55:35;6.00;99.90
11122;DHT22;5615;49.304;10.576;2023-04-12T03:58:02;6.00;99.90
11122;DHT22;5615;49.304;10.576;2023-04-12T04:00:31;5.90;99.90
11122;DHT22;5615;49.304;10.576;2023-04-12T04:02:58;5.90;99.90
11122;DHT22;5615;49.304;10.576;2023-04-12T04:05:28;5.90;99.90
11122;DHT22;5615;49.304;10.576;2023-04-12T04:07:55;5.90;99.90
11122;DHT22;5615;49.304;10.576;2023-04-12T04:10:25;5.90;99.90
11122;DHT22;5615;49.304;10.576;2023-04-12T04:12:51;5.90;99.90
11122;DHT22;5615;49.304;10.576;2023-04-12T04:15:18;5.90;99.90
11122;DHT22;5615;49.304;10.576;2023-04-12T04:17:46;5.90;99.90
11122;DHT22;5615;49.304;10.576;2023-04-12T04:20:13;5.80;99.90
11122;DHT22;5615;49.304;10.576;2023-04-12T04:22:40;5.80;99.90
11122;DHT22;5615;49.304;10.576;2023-04-12T04:25:08;5.80;99.90
11122;DHT22;5615;49.304;10.576;2023-04-12T04:27:35;5.80;99.90
11122;DHT22;5615;49.304;10.576;2023-04-12T04:30:03;5.80;99.90
11122;DHT22;5615;49.304;10.576;2023-04-12T04:32:30;5.80;99.90
11122;DHT22;5615;49.304;10.576;2023-04-12T04:34:59;5.80;99.90
11122;DHT22;5615;49.304;10.576;2023-04-12T04:37:27;5.80;99.90
11122;DHT22;5615;49.304;10.576;2023-04-12T04:39:54;5.80;99.90
11122;DHT22;5615;49.304;10.576;2023-04-12T04:42:21;5.80;99.90
11122;DHT22;5615;49.304;10.576;2023-04-12T04:44:48;5.80;99.90
11122;DHT22;5615;49.304;10.576;2023-04-12T04:47:16;5.80;99.90
11122;DHT22;5615;49.304;10.576;2023-04-12T04:49:43;5.80;99.90
11122;DHT22;5615;49.304;10.576;2023-04-12T04:52:13;5.80;99.90
11122;DHT22;5615;49.304;10.576;2023-04-12T04:54:40;5.80;99.90
11122;DHT22;5615;49.304;10.576;2023-04-12T04:57:06;5.80;99.90
11122;DHT22;5615;49.304;10.576;2023-04-12T04:59:36;5.90;99.90
11122;DHT22;5615;49.304;10.576;2023-04-12T05:02:02;5.90;99.90
11122;DHT22;5615;49.304;10.576;2023-04-12T05:04:29;5.90;99.90
11122;DHT22;5615;49.304;10.576;2023-04-12T05:06:55;5.90;99.90
11122;DHT22;5615;49.304;10.576;2023-04-12T05:09:23;5.90;99.90
11122;DHT22;5615;49.304;10.576;2023-04-12T05:11:50;5.90;99.90
11122;DHT22;5615;49.304;10.576;2023-04-12T05:14:16;5.90;99.90
11122;DHT22;5615;49.304;10.576;2023-04-12T05:16:43;6.00;99.90
11122;DHT22;5615;49.304;10.576;2023-04-12T05:19:10;6.00;99.90
11122;DHT22;5615;49.304;10.576;2023-04-12T05:21:37;6.00;99.90
11122;DHT22;5615;49.304;10.576;2023-04-12T05:24:04;6.10;99.90
11122;DHT22;5615;49.304;10.576;2023-04-12T05:26:32;6.10;99.90
11122;DHT22;5615;49.304;10.576;2023-04-12T05:28:58;6.10;99.90
11122;DHT22;5615;49.304;10.576;2023-04-12T05:31:26;6.20;99.90
11122;DHT22;5615;49.304;10.576;2023-04-12T05:33:53;6.20;99.90
11122;DHT22;5615;49.304;10.576;2023-04-12T05:36:20;6.20;99.90
11122;DHT22;5615;49.304;10.576;2023-04-12T05:38:46;6.20;99.90
11122;DHT22;5615;49.304;10.576;2023-04-12T05:41:13;6.20;99.90
11122;DHT22;5615;49.304;10.576;2023-04-12T05:43:41;6.20;99.90
11122;DHT22;5615;49.304;10.576;2023-04-12T05:46:07;6.30;99.90
11122;DHT22;5615;49.304;10.576;2023-04-12T05:48:34;6.30;99.90
11122;DHT22;5615;49.304;10.576;2023-04-12T05:51:02;6.30;99.90
11122;DHT22;5615;49.304;10.576;2023-04-12T05:53:29;6.40;99.90
11122;DHT22;5615;49.304;10.576;2023-04-12T05:55:57;6.40;99.90
11122;DHT22;5615;49.304;10.576;2023-04-12T05:58:23;6.40;99.90
11122;DHT22;5615;49.304;10.576;2023-04-12T06:00:51;6.40;99.90
11122;DHT22;5615;49.304;10.576;2023-04-12T06:03:20;6.40;99.90
11122;DHT22;5615;49.304;10.576;2023-04-12T06:05:48;6.40;99.90
11122;DHT22;5615;49.304;10.576;2023-04-12T06:08:14;6.50;99.90
11122;DHT22;5615;49.304;10.576;2023-04-12T06:10:41;6.50;99.90
11122;DHT22;5615;49.304;10.576;2023-04-12T06:13:08;6.40;99.90
11122;DHT22;5615;49.304;10.576;2023-04-12T06:15:34;6.40;99.90
11122;DHT22;5615;49.304;10.576;2023-04-12T06:18:02;6.50;99.90
11122;DHT22;5615;49.304;10.576;2023-04-12T06:20:29;6.50;99.90
11122;DHT22;5615;49.304;10.576;2023-04-12T06:22:56;6.50;99.90
11122;DHT22;5615;49.304;10.576;2023-04-12T06:25:22;6.50;99.90
11122;DHT22;5615;49.304;10.576;2023-04-12T06:27:49;6.50;99.90
11122;DHT22;5615;49.304;10.576;2023-04-12T06:30:17;6.50;99.90
11122;DHT22;5615;49.304;10.576;2023-04-12T06:32:44;6.60;99.90
11122;DHT22;5615;49.304;10.576;2023-04-12T06:35:12;6.60;99.90
11122;DHT22;5615;49.304;10.576;2023-04-12T06:37:38;6.70;99.90
11122;DHT22;5615;49.304;10.576;2023-04-12T06:40:07;6.60;99.90
11122;DHT22;5615;49.304;10.576;2023-04-12T06:42:33;6.60;99.90
11122;DHT22;5615;49.304;10.576;2023-04-12T06:45:00;6.70;99.90
11122;DHT22;5615;49.304;10.576;2023-04-12T06:47:28;6.70;99.90
11122;DHT22;5615;49.304;10.576;2023-04-12T06:49:55;6.70;99.90
11122;DHT22;5615;49.304;10.576;2023-04-12T06:52:24;6.70;99.90
11122;DHT22;5615;49.304;10.576;2023-04-12T06:54:51;6.70;99.90
11122;DHT22;5615;49.304;10.576;2023-04-12T06:57:17;6.70;99.90
11122;DHT22;5615;49.304;10.576;2023-04-12T06:59:44;6.70;99.90
11122;DHT22;5615;49.304;10.576;2023-04-12T07:02:10;6.90;99.90
11122;DHT22;5615;49.304;10.576;2023-04-12T07:04:37;6.90;99.90
11122;DHT22;5615;49.304;10.576;2023-04-12T07:07:04;6.90;99.90
11122;DHT22;5615;49.304;10.576;2023-04-12T07:09:32;6.90;99.90
11122;DHT22;5615;49.304;10.576;2023-04-12T07:11:59;6.90;99.90
11122;DHT22;5615;49.304;10.576;2023-04-12T07:14:26;6.90;99.90
11122;DHT22;5615;49.304;10.576;2023-04-12T07:16:53;6.90;99.90
11122;DHT22;5615;49.304;10.576;2023-04-12T07:19:20;7.00;99.90
11122;DHT22;5615;49.304;10.576;2023-04-12T07:21:46;7.00;99.90
11122;DHT22;5615;49.304;10.576;2023-04-12T07:24:13;7.00;99.90
11122;DHT22;5615;49.304;10.576;2023-04-12T07:26:41;7.00;99.90
11122;DHT22;5615;49.304;10.576;2023-04-12T07:29:07;7.10;99.90
11122;DHT22;5615;49.304;10.576;2023-04-12T07:31:34;7.10;99.90
11122;DHT22;5615;49.304;10.576;2023-04-12T07:34:01;7.20;99.90
11122;DHT22;5615;49.304;10.576;2023-04-12T07:36:27;7.10;99.90
11122;DHT22;5615;49.304;10.576;2023-04-12T07:38:54;7.20;99.90
11122;DHT22;5615;49.304;10.576;2023-04-12T07:41:20;7.20;99.90
11122;DHT22;5615;49.304;10.576;2023-04-12T07:43:49;7.20;99.90
11122;DHT22;5615;49.304;10.576;2023-04-12T07:46:16;7.30;99.90
11122;DHT22;5615;49.304;10.576;2023-04-12T07:48:43;7.30;99.90
11122;DHT22;5615;49.304;10.576;2023-04-12T07:51:09;7.30;99.90
11122;DHT22;5615;49.304;10.576;2023-04-12T07:53:36;7.20;99.90
11122;DHT22;5615;49.304;10.576;2023-04-12T07:56:03;7.10;99.90
11122;DHT22;5615;49.304;10.576;2023-04-12T07:58:32;7.00;99.90
11122;DHT22;5615;49.304;10.576;2023-04-12T08:01:00;7.00;99.90
11122;DHT22;5615;49.304;10.576;2023-04-12T08:03:26;7.10;99.90
11122;DHT22;5615;49.304;10.576;2023-04-12T08:05:53;7.10;99.90
11122;DHT22;5615;49.304;10.576;2023-04-12T08:08:20;7.10;99.90
11122;DHT22;5615;49.304;10.576;2023-04-12T08:10:47;7.10;99.90
11122;DHT22;5615;49.304;10.576;2023-04-12T08:13:14;7.20;99.90
11122;DHT22;5615;49.304;10.576;2023-04-12T08:15:41;7.20;99.90
11122;DHT22;5615;49.304;10.576;2023-04-12T08:18:10;7.20;99.90
11122;DHT22;5615;49.304;10.576;2023-04-12T08:20:36;7.30;99.90
11122;DHT22;5615;49.304;10.576;2023-04-12T08:23:04;7.40;99.90
11122;DHT22;5615;49.304;10.576;2023-04-12T08:25:31;7.50;99.90
11122;DHT22;5615;49.304;10.576;2023-04-12T08:27:58;7.50;99.90
11122;DHT22;5615;49.304;10.576;2023-04-12T08:30:25;7.40;99.90
11122;DHT22;5615;49.304;10.576;2023-04-12T08:32:52;7.50;99.90
11122;DHT22;5615;49.304;10.576;2023-04-12T08:35:20;7.50;99.90
11122;DHT22;5615;49.304;10.576;2023-04-12T08:37:47;7.50;99.90
11122;DHT22;5615;49.304;10.576;2023-04-12T08:40:15;7.50;99.90
11122;DHT22;5615;49.304;10.576;2023-04-12T08:42:42;7.60;99.90
11122;DHT22;5615;49.304;10.576;2023-04-12T08:45:10;7.60;99.90
11122;DHT22;5615;49.304;10.576;2023-04-12T08:47:38;7.70;99.90
11122;DHT22;5615;49.304;10.576;2023-04-12T08:50:07;7.60;99.90
11122;DHT22;5615;49.304;10.576;2023-04-12T08:52:36;7.70;99.90
11122;DHT22;5615;49.304;10.576;2023-04-12T08:55:04;7.70;99.90
11122;DHT22;5615;49.304;10.576;2023-04-12T08:57:31;7.70;99.90
11122;DHT22;5615;49.304;10.576;2023-04-12T08:59:59;7.70;99.90
11122;DHT22;5615;49.304;10.576;2023-04-12T09:02:27;7.80;99.90
11122;DHT22;5615;49.304;10.576;2023-04-12T09:04:54;7.90;99.90
11122;DHT22;5615;49.304;10.576;2023-04-12T09:07:21;7.90;99.90
11122;DHT22;5615;49.304;10.576;2023-04-12T09:09:55;8.00;99.90
11122;DHT22;5615;49.304;10.576;2023-04-12T09:12:22;8.10;99.90
11122;DHT22;5615;49.304;10.576;2023-04-12T09:15:05;8.10;99.90
11122;DHT22;5615;49.304;10.576;2023-04-12T09:17:33;8.10;99.90
11122;DHT22;5615;49.304;10.576;2023-04-12T09:20:01;8.10;99.90
11122;DHT22;5615;49.304;10.576;2023-04-12T09:22:33;8.20;99.90
11122;DHT22;5615;49.304;10.576;2023-04-12T09:25:01;8.20;99.90
11122;DHT22;5615;49.304;10.576;2023-04-12T09:27:28;8.20;99.90
11122;DHT22;5615;49.304;10.576;2023-04-12T09:30:06;8.30;99.90
11122;DHT22;5615;49.304;10.576;2023-04-12T09:32:32;8.40;99.90
11122;DHT22;5615;49.304;10.576;2023-04-12T09:34:59;8.50;99.90
11122;DHT22;5615;49.304;10.576;2023-04-12T09:37:27;8.50;99.90
11122;DHT22;5615;49.304;10.576;2023-04-12T09:40:02;8.40;99.90
11122;DHT22;5615;49.304;10.576;2023-04-12T09:42:30;8.30;99.90
11122;DHT22;5615;49.304;10.576;2023-04-12T09:44:59;8.40;99.90
11122;DHT22;5615;49.304;10.576;2023-04-12T09:47:36;8.50;99.90
11122;DHT22;5615;49.304;10.576;2023-04-12T09:50:04;8.60;99.90
11122;DHT22;5615;49.304;10.576;2023-04-12T09:52:35;8.80;99.90
11122;DHT22;5615;49.304;10.576;2023-04-12T09:55:07;8.80;99.90
11122;DHT22;5615;49.304;10.576;2023-04-12T09:57:37;9.00;99.90
11122;DHT22;5615;49.304;10.576;2023-04-12T10:00:06;9.00;99.90
11122;DHT22;5615;49.304;10.576;2023-04-12T10:02:37;9.00;99.90
11122;DHT22;5615;49.304;10.576;2023-04-12T10:05:06;9.10;99.90
11122;DHT22;5615;49.304;10.576;2023-04-12T10:07:35;9.30;99.90
11122;DHT22;5615;49.304;10.576;2023-04-12T10:10:05;9.50;99.90
11122;DHT22;5615;49.304;10.576;2023-04-12T10:12:34;9.80;99.90
11122;DHT22;5615;49.304;10.576;2023-04-12T10:15:03;10.00;99.90
11122;DHT22;5615;49.304;10.576;2023-04-12T10:17:32;10.10;99.90
11122;DHT22;5615;49.304;10.576;2023-04-12T10:20:00;10.30;99.90
11122;DHT22;5615;49.304;10.576;2023-04-12T10:22:28;10.30;99.90
11122;DHT22;5615;49.304;10.576;2023-04-12T10:24:55;10.50;99.90
11122;DHT22;5615;49.304;10.576;2023-04-12T10:27:27;10.30;99.90
11122;DHT22;5615;49.304;10.576;2023-04-12T10:29:54;9.90;99.90
11122;DHT22;5615;49.304;10.576;2023-04-12T10:32:40;9.80;99.90
11122;DHT22;5615;49.304;10.576;2023-04-12T10:35:08;9.80;99.90
11122;DHT22;5615;49.304;10.576;2023-04-12T10:38:00;9.90;99.90
11122;DHT22;5615;49.304;10.576;2023-04-12T10:40:27;9.60;99.90
11122;DHT22;5615;49.304;10.576;2023-04-12T10:43:25;9.60;99.90
11122;DHT22;5615;49.304;10.576;2023-04-12T10:45:53;9.50;99.90
11122;DHT22;5615;49.304;10.576;2023-04-12T10:48:29;9.30;99.90
11122;DHT22;5615;49.304;10.576;2023-04-12T10:51:11;9.10;99.90
11122;DHT22;5615;49.304;10.576;2023-04-12T10:53:39;9.20;99.90
11122;DHT22;5615;49.304;10.576;2023-04-12T10:56:36;9.30;99.90
11122;DHT22;5615;49.304;10.576;2023-04-12T10:59:05;9.50;99.90
11122;DHT22;5615;49.304;10.576;2023-04-12T11:01:32;9.30;99.90
11122;DHT22;5615;49.304;10.576;2023-04-12T11:04:11;9.10;99.90
11122;DHT22;5615;49.304;10.576;2023-04-12T11:06:42;9.10;99.90
11122;DHT22;5615;49.304;10.576;2023-04-12T11:09:19;9.10;99.90
11122;DHT22;5615;49.304;10.576;2023-04-12T11:11:46;9.30;99.90
11122;DHT22;5615;49.304;10.576;2023-04-12T11:14:15;9.00;99.90
11122;DHT22;5615;49.304;10.576;2023-04-12T11:17:20;9.00;99.90
11122;DHT22;5615;49.304;10.576;2023-04-12T11:19:49;9.30;99.90
11122;DHT22;5615;49.304;10.576;2023-04-12T11:22:17;9.40;99.90
11122;DHT22;5615;49.304;10.576;2023-04-12T11:24:46;9.20;99.90
11122;DHT22;5615;49.304;10.576;2023-04-12T11:27:14;9.20;99.90
11122;DHT22;5615;49.304;10.576;2023-04-12T11:29:43;9.40;99.90
11122;DHT22;5615;49.304;10.576;2023-04-12T11:32:11;9.50;99.90
11122;DHT22;5615;49.304;10.576;2023-04-12T11:34:39;9.60;99.90
11122;DHT22;5615;49.304;10.576;2023-04-12T11:37:07;9.70;99.90
11122;DHT22;5615;49.304;10.576;2023-04-12T11:39:34;9.60;99.90
11122;DHT22;5615;49.304;10.576;2023-04-12T11:42:01;9.50;99.90
11122;DHT22;5615;49.304;10.576;2023-04-12T11:44:31;9.50;99.90
11122;DHT22;5615;49.304;10.576;2023-04-12T11:46:59;9.60;99.90
11122;DHT22;5615;49.304;10.576;2023-04-12T11:49:26;9.80;99.90
11122;DHT22;5615;49.304;10.576;2023-04-12T11:52:00;10.00;99.90
11122;DHT22;5615;49.304;10.576;2023-04-12T11:54:28;10.10;99.90
11122;DHT22;5615;49.304;10.576;2023-04-12T11:56:56;10.00;99.90
11122;DHT22;5615;49.304;10.576;2023-04-12T11:59:30;10.20;99.90
11122;DHT22;5615;49.304;10.576;2023-04-12T12:01:57;10.40;99.90
11122;DHT22;5615;49.304;10.576;2023-04-12T12:04:27;10.70;99.90
11122;DHT22;5615;49.304;10.576;2023-04-12T12:06:55;11.00;99.90
11122;DHT22;5615;49.304;10.576;2023-04-12T12:09:22;11.10;99.90
11122;DHT22;5615;49.304;10.576;2023-04-12T12:11:49;10.90;99.90
11122;DHT22;5615;49.304;10.576;2023-04-12T12:14:17;10.90;99.90
11122;DHT22;5615;49.304;10.576;2023-04-12T12:16:51;11.00;99.90
11122;DHT22;5615;49.304;10.576;2023-04-12T12:19:30;11.00;99.90
11122;DHT22;5615;49.304;10.576;2023-04-12T12:22:21;11.00;99.90
11122;DHT22;5615;49.304;10.576;2023-04-12T12:24:50;11.00;99.90
11122;DHT22;5615;49.304;10.576;2023-04-12T12:27:18;11.40;99.90
11122;DHT22;5615;49.304;10.576;2023-04-12T12:29:49;11.30;99.90
11122;DHT22;5615;49.304;10.576;2023-04-12T12:32:18;11.30;99.90
11122;DHT22;5615;49.304;10.576;2023-04-12T12:34:52;11.20;99.90
11122;DHT22;5615;49.304;10.576;2023-04-12T12:37:23;11.20;99.90
11122;DHT22;5615;49.304;10.576;2023-04-12T12:40:04;11.30;99.90
11122;DHT22;5615;49.304;10.576;2023-04-12T12:42:35;11.60;99.90
11122;DHT22;5615;49.304;10.576;2023-04-12T12:45:04;11.30;99.90
11122;DHT22;5615;49.304;10.576;2023-04-12T12:47:31;11.50;99.90
11122;DHT22;5615;49.304;10.576;2023-04-12T12:49:59;11.50;99.90
11122;DHT22;5615;49.304;10.576;2023-04-12T12:52:26;11.40;99.90
11122;DHT22;5615;49.304;10.576;2023-04-12T12:54:52;11.30;99.90
11122;DHT22;5615;49.304;10.576;2023-04-12T12:57:19;11.40;99.90
11122;DHT22;5615;49.304;10.576;2023-04-12T12:59:45;11.40;99.90
11122;DHT22;5615;49.304;10.576;2023-04-12T13:02:12;11.30;99.90
11122;DHT22;5615;49.304;10.576;2023-04-12T13:04:39;11.40;99.90
11122;DHT22;5615;49.304;10.576;2023-04-12T13:07:07;11.30;99.90
11122;DHT22;5615;49.304;10.576;2023-04-12T13:09:34;11.20;99.90
11122;DHT22;5615;49.304;10.576;2023-04-12T13:12:01;11.30;99.90
11122;DHT22;5615;49.304;10.576;2023-04-12T13:14:27;11.40;99.90
11122;DHT22;5615;49.304;10.576;2023-04-12T13:16:54;11.90;99.90
11122;DHT22;5615;49.304;10.576;2023-04-12T13:19:21;12.10;99.90
11122;DHT22;5615;49.304;10.576;2023-04-12T13:21:48;12.20;99.90
11122;DHT22;5615;49.304;10.576;2023-04-12T13:24:16;12.80;99.90
11122;DHT22;5615;49.304;10.576;2023-04-12T13:26:42;12.50;99.90
11122;DHT22;5615;49.304;10.576;2023-04-12T13:29:09;12.60;99.90
11122;DHT22;5615;49.304;10.576;2023-04-12T13:31:35;12.30;99.90
11122;DHT22;5615;49.304;10.576;2023-04-12T13:34:02;12.00;99.90
11122;DHT22;5615;49.304;10.576;2023-04-12T13:36:28;11.80;99.90
11122;DHT22;5615;49.304;10.576;2023-04-12T13:38:55;11.70;99.90
11122;DHT22;5615;49.304;10.576;2023-04-12T13:41:24;11.80;99.90
11122;DHT22;5615;49.304;10.576;2023-04-12T13:43:50;11.90;99.90
11122;DHT22;5615;49.304;10.576;2023-04-12T13:46:17;11.90;99.90
11122;DHT22;5615;49.304;10.576;2023-04-12T13:48:44;11.70;99.90
11122;DHT22;5615;49.304;10.576;2023-04-12T13:51:10;11.70;99.90
11122;DHT22;5615;49.304;10.576;2023-04-12T13:53:37;11.80;99.90
11122;DHT22;5615;49.304;10.576;2023-04-12T13:56:04;12.00;99.90
11122;DHT22;5615;49.304;10.576;2023-04-12T13:58:32;12.00;99.90
11122;DHT22;5615;49.304;10.576;2023-04-12T14:00:59;12.10;99.90
11122;DHT22;5615;49.304;10.576;2023-04-12T14:03:25;12.60;99.90
11122;DHT22;5615;49.304;10.576;2023-04-12T14:05:52;12.80;99.90
11122;DHT22;5615;49.304;10.576;2023-04-12T14:08:19;13.00;99.90
11122;DHT22;5615;49.304;10.576;2023-04-12T14:10:46;13.00;99.90
11122;DHT22;5615;49.304;10.576;2023-04-12T14:13:13;13.10;99.90
11122;DHT22;5615;49.304;10.576;2023-04-12T14:15:40;12.80;99.90
11122;DHT22;5615;49.304;10.576;2023-04-12T14:18:07;12.80;99.90
11122;DHT22;5615;49.304;10.576;2023-04-12T14:20:34;12.90;99.90
11122;DHT22;5615;49.304;10.576;2023-04-12T14:23:00;13.80;99.90
11122;DHT22;5615;49.304;10.576;2023-04-12T14:25:27;15.00;99.90
11122;DHT22;5615;49.304;10.576;2023-04-12T14:27:54;16.60;99.90
11122;DHT22;5615;49.304;10.576;2023-04-12T14:30:20;17.00;99.90
11122;DHT22;5615;49.304;10.576;2023-04-12T14:32:48;17.00;99.90
11122;DHT22;5615;49.304;10.576;2023-04-12T14:35:15;16.90;99.90
11122;DHT22;5615;49.304;10.576;2023-04-12T14:37:42;16.30;99.90
11122;DHT22;5615;49.304;10.576;2023-04-12T14:40:09;15.70;99.90
11122;DHT22;5615;49.304;10.576;2023-04-12T14:42:36;15.10;99.90
11122;DHT22;5615;49.304;10.576;2023-04-12T14:45:03;14.50;99.90
11122;DHT22;5615;49.304;10.576;2023-04-12T14:47:32;14.00;99.90
11122;DHT22;5615;49.304;10.576;2023-04-12T14:50:00;14.20;99.90
11122;DHT22;5615;49.304;10.576;2023-04-12T14:52:26;14.30;99.90
11122;DHT22;5615;49.304;10.576;2023-04-12T14:54:53;14.10;99.90
11122;DHT22;5615;49.304;10.576;2023-04-12T14:57:20;14.50;99.90
11122;DHT22;5615;49.304;10.576;2023-04-12T14:59:47;14.90;99.90
11122;DHT22;5615;49.304;10.576;2023-04-12T15:02:14;15.00;99.90
11122;DHT22;5615;49.304;10.576;2023-04-12T15:04:40;14.90;99.90
11122;DHT22;5615;49.304;10.576;2023-04-12T15:07:08;14.80;99.90
11122;DHT22;5615;49.304;10.576;2023-04-12T15:09:35;15.10;99.90
11122;DHT22;5615;49.304;10.576;2023-04-12T15:12:01;15.30;99.90
11122;DHT22;5615;49.304;10.576;2023-04-12T15:14:28;15.20;99.90
11122;DHT22;5615;49.304;10.576;2023-04-12T15:16:55;14.60;99.90
11122;DHT22;5615;49.304;10.576;2023-04-12T15:19:22;14.50;99.90
11122;DHT22;5615;49.304;10.576;2023-04-12T15:21:49;14.30;99.90
11122;DHT22;5615;49.304;10.576;2023-04-12T15:24:17;14.10;99.90
11122;DHT22;5615;49.304;10.576;2023-04-12T15:26:44;14.00;99.90
11122;DHT22;5615;49.304;10.576;2023-04-12T15:29:13;14.20;99.90
11122;DHT22;5615;49.304;10.576;2023-04-12T15:31:39;14.10;99.90
11122;DHT22;5615;49.304;10.576;2023-04-12T15:34:06;14.10;99.90
11122;DHT22;5615;49.304;10.576;2023-04-12T15:36:33;13.80;99.90
11122;DHT22;5615;49.304;10.576;2023-04-12T15:39:02;13.90;99.90
11122;DHT22;5615;49.304;10.576;2023-04-12T15:41:33;14.20;99.90
11122;DHT22;5615;49.304;10.576;2023-04-12T15:44:01;14.90;99.90
11122;DHT22;5615;49.304;10.576;2023-04-12T15:46:28;14.90;99.90
11122;DHT22;5615;49.304;10.576;2023-04-12T15:48:55;14.80;99.90